Aérodrome :
LOGIN :

S'inscrire | Disclaimer

   EN    FR    IT 

 










Légende :    VFR   VFR Marginal   IFR   IFR Intensif   IFR Très Intensif
Visi : 
Plafond : 
>= 8 km
>= 3000ft
5 à 8 km
1000 à 3000 ft
1500m à 5 km
500 à 1000 ft
800 à 1500m
200 à 500 ft
< 800m
< 200 ft
Symboles :   Orages  Brouillard  Fortes neiges  Fortes précipitations  Vent > 20 kt
SIGMETs :   Divers  Orages  Givrage  Turbulence  Onde Orograph.  Cendres Volcan.







- Altitude de l'aérodrome : 622 ft
- Code IATA : BRS
- Voir les cartes d'approche


EGGD - Bristol Int.

DERNIER METAR :
  • 180550Z AUTO 20007KT 9999 NCD 08/05 Q1013

METARs EXPIRÉS :
  • 180520Z AUTO 20008KT 9999 NCD 08/05 Q1013
  • 180450Z AUTO 19007KT 9999 NCD 08/06 Q1013
  • 180420Z AUTO 20007KT 9999 BKN017 08/06 Q1013
  • 180350Z AUTO 20007KT 9999 SCT008 BKN014 BKN039 08/07 Q1013
  • 180320Z AUTO 20006KT 160V220 9999 FEW009 SCT013 08/06 Q1013

TAF TAF EGGD
Valide du 18 à 06h jusqu'au 19 à 06h UTC


180457Z 1806/1906 19012KT 9999 SCT020
TEMPO 1806/1816 6000 SHRA BKN010
PROB30
TEMPO 1806/1812 BKN008
PROB30
TEMPO 1812/1815 23015G25KT 3000 +SHRA SHGS BKN008
BECMG 1814/1817 25012KT
PROB30
TEMPO 1900/1906 4000 BR BKN005
ATIS : +44 1275 473 666
Pas de NOTAMs connus pour ce terrain.



MET'MAP, la Météo Aéronautique d'un coup d'oeil ! - Copyright ORBIFLY Décembre 2007 - Disclaimer

ORBIFLY MET'MAP TEAM :

Programmation & Développement : Alexandra Zaïnal
Conception & Développement : Baudouin d'Aumeries
Co-Programmation & Développement : Marc-Olivier Méhu
Soutien technique & logistique : Manuel Goepfert

Contact : metmap@orbifly.com




SOURCES & CREDITS :

   NOAA